createdAt,value
2023-05-14T00:01:16.733Z,101063.59
2023-05-14T00:06:19.699Z,101059.97
2023-05-14T00:11:22.503Z,101060.05
2023-05-14T00:16:25.533Z,101061.76
2023-05-14T00:21:28.422Z,101064.98
2023-05-14T00:26:31.396Z,101068.56
2023-05-14T00:31:34.175Z,101067.25
2023-05-14T00:36:37.043Z,101065.81
2023-05-14T00:41:40.049Z,101066.92
2023-05-14T00:46:43.896Z,101068.55
2023-05-14T00:51:47.220Z,101064.61
2023-05-14T00:56:51.113Z,101062.77
2023-05-14T01:01:54.521Z,101059.35
2023-05-14T01:07:21.063Z,101050.91
2023-05-14T01:12:53.388Z,101056.23
2023-05-14T01:18:01.985Z,101054.06
2023-05-14T01:23:05.020Z,101046.06
2023-05-14T01:28:19.434Z,101041.04
2023-05-14T01:33:25.023Z,101043.54
2023-05-14T01:38:31.852Z,101050.62
2023-05-14T01:43:36.008Z,101051.04
2023-05-14T01:48:38.983Z,101045.17
2023-05-14T01:53:41.834Z,101042.25
2023-05-14T01:58:44.817Z,101038.67
2023-05-14T02:03:47.664Z,101039.75
2023-05-14T02:08:51.000Z,101036.30
2023-05-14T02:13:53.880Z,101041.06
2023-05-14T02:18:56.790Z,101043.76
2023-05-14T02:23:59.694Z,101041.90
2023-05-14T02:29:02.518Z,101040.54
2023-05-14T02:34:06.863Z,101041.77
2023-05-14T02:39:09.671Z,101039.90
2023-05-14T02:44:12.491Z,101039.41
2023-05-14T02:49:15.271Z,101035.40
2023-05-14T02:54:18.075Z,101035.42
2023-05-14T02:59:20.854Z,101030.59
2023-05-14T03:04:24.273Z,101029.91
2023-05-14T03:09:27.101Z,101025.52
2023-05-14T03:14:29.903Z,101024.66
2023-05-14T03:19:32.724Z,101022.05
2023-05-14T03:24:35.648Z,101026.03
2023-05-14T03:29:38.514Z,101020.73
2023-05-14T03:34:41.672Z,101019.79
2023-05-14T03:39:44.491Z,101015.70
2023-05-14T03:44:47.322Z,101014.27
2023-05-14T03:49:50.201Z,101016.08
2023-05-14T03:54:53.142Z,101016.77
2023-05-14T03:59:55.931Z,101011.46
2023-05-14T04:04:58.799Z,101007.50
2023-05-14T04:10:04.539Z,101005.08
2023-05-14T04:15:08.833Z,101000.70
2023-05-14T04:20:11.804Z,100996.69
2023-05-14T04:25:14.619Z,100998.33
2023-05-14T04:30:17.755Z,100997.06
2023-05-14T04:35:23.443Z,100996.71
2023-05-14T04:40:28.018Z,100995.45
2023-05-14T04:45:34.292Z,100998.17
2023-05-14T04:50:37.353Z,100992.92
2023-05-14T04:55:40.164Z,100988.90
2023-05-14T05:00:43.092Z,100984.98
2023-05-14T05:05:45.892Z,100984.98
2023-05-14T05:10:48.813Z,100986.85
2023-05-14T05:15:51.669Z,100987.20
2023-05-14T05:20:54.563Z,100982.42
2023-05-14T05:25:57.380Z,100988.84
2023-05-14T05:31:00.288Z,100986.54
2023-05-14T05:36:03.287Z,100983.07
2023-05-14T05:41:06.569Z,100983.55
2023-05-14T05:46:09.471Z,100977.98
2023-05-14T05:51:12.296Z,100976.74
2023-05-14T05:56:15.147Z,100980.81
2023-05-14T06:01:17.945Z,100980.52
2023-05-14T06:06:21.893Z,100981.36
2023-05-14T06:11:25.460Z,100975.05
2023-05-14T06:16:28.362Z,100972.91
2023-05-14T06:21:31.088Z,100977.23
2023-05-14T06:26:33.898Z,100976.06
2023-05-14T06:31:36.650Z,100973.02
2023-05-14T06:36:39.577Z,100968.20
2023-05-14T06:41:42.384Z,100965.70
2023-05-14T06:46:45.146Z,100960.83
2023-05-14T06:51:47.991Z,100959.25
2023-05-14T06:56:50.832Z,100959.53
2023-05-14T07:01:53.750Z,100953.17
2023-05-14T07:06:56.667Z,100950.38
2023-05-14T07:11:59.482Z,100949.84
2023-05-14T07:17:02.412Z,100946.42
2023-05-14T07:22:05.607Z,100948.90
2023-05-14T07:27:09.149Z,100943.91
2023-05-14T07:32:14.722Z,100940.83
2023-05-14T07:37:19.040Z,100936.59
2023-05-14T07:42:34.479Z,100927.73
2023-05-14T07:47:40.721Z,100929.08
2023-05-14T07:52:43.782Z,100926.40
2023-05-14T07:57:46.605Z,100917.82
2023-05-14T08:02:50.487Z,100914.38
2023-05-14T08:07:53.484Z,100910.86
2023-05-14T08:12:56.387Z,100908.96
2023-05-14T08:18:03.653Z,100905.98
2023-05-14T08:23:07.598Z,100903.32
2023-05-14T08:28:10.424Z,100900.45
2023-05-14T08:33:13.469Z,100896.75
2023-05-14T08:38:16.357Z,100893.70
2023-05-14T08:43:22.904Z,100896.43
2023-05-14T08:48:29.394Z,100889.16
2023-05-14T08:53:32.295Z,100884.16
2023-05-14T08:58:35.103Z,100884.23
2023-05-14T09:03:38.836Z,100878.17
2023-05-14T09:08:41.965Z,100876.06
2023-05-14T09:13:44.776Z,100867.20
2023-05-14T09:18:48.172Z,100866.21
2023-05-14T09:23:55.465Z,100863.65
2023-05-14T09:29:02.782Z,100865.80
2023-05-14T09:34:05.955Z,100855.61
2023-05-14T09:39:08.842Z,100851.08
2023-05-14T09:44:11.708Z,100844.98
2023-05-14T09:49:15.116Z,100833.93
2023-05-14T09:54:17.992Z,100833.65
2023-05-14T09:59:20.830Z,100822.73
2023-05-14T10:04:24.483Z,100825.30
2023-05-14T10:09:29.836Z,100821.41
2023-05-14T10:14:38.820Z,100816.02
2023-05-14T10:19:42.002Z,100803.45
2023-05-14T10:24:46.234Z,100798.28
2023-05-14T10:29:56.371Z,100787.10
2023-05-14T10:35:01.832Z,100786.70
2023-05-14T10:40:06.835Z,100785.71
2023-05-14T10:45:12.821Z,100776.41
2023-05-14T10:50:16.249Z,100771.27
2023-05-14T10:55:19.119Z,100765.46
2023-05-14T11:00:26.194Z,100762.50
2023-05-14T11:05:29.360Z,100750.33
2023-05-14T11:10:32.581Z,100744.27
2023-05-14T11:15:36.235Z,100740.61
2023-05-14T11:20:39.177Z,100736.41
2023-05-14T11:25:43.008Z,100736.20
2023-05-14T11:30:46.525Z,100732.30
2023-05-14T11:35:49.490Z,100718.36
2023-05-14T11:40:56.828Z,100712.88
2023-05-14T11:45:59.773Z,100712.59
2023-05-14T11:51:02.663Z,100711.00
2023-05-14T11:56:07.603Z,100704.96
2023-05-14T12:01:13.792Z,100698.80
2023-05-14T12:06:16.593Z,100693.54
2023-05-14T12:11:21.378Z,100689.38
2023-05-14T12:16:24.244Z,100685.02
2023-05-14T12:21:28.014Z,100682.50
2023-05-14T12:26:34.264Z,100672.00
2023-05-14T12:31:37.088Z,100665.96
2023-05-14T12:36:39.945Z,100655.41
2023-05-14T12:41:42.732Z,100650.06
2023-05-14T12:46:46.196Z,100640.70
2023-05-14T12:51:51.175Z,100637.06
2023-05-14T12:56:55.663Z,100641.83
2023-05-14T13:01:58.498Z,100643.00
2023-05-14T13:07:01.332Z,100635.50
2023-05-14T13:12:04.675Z,100625.05
2023-05-14T13:17:08.277Z,100613.58
2023-05-14T13:22:11.211Z,100601.48
2023-05-14T13:27:14.025Z,100598.46
2023-05-14T13:32:16.883Z,100590.06
2023-05-14T13:37:20.077Z,100585.37
2023-05-14T13:42:23.758Z,100583.48
2023-05-14T13:47:27.029Z,100577.27
2023-05-14T13:52:29.891Z,100570.22
2023-05-14T13:57:32.723Z,100566.42
2023-05-14T14:02:35.605Z,100557.79
2023-05-14T14:07:40.676Z,100551.67
2023-05-14T14:12:43.486Z,100551.33
2023-05-14T14:17:46.377Z,100541.96
2023-05-14T14:22:49.357Z,100533.96
2023-05-14T14:27:52.281Z,100534.79
2023-05-14T14:32:55.337Z,100525.76
2023-05-14T14:37:58.290Z,100522.60
2023-05-14T14:43:02.244Z,100521.38
2023-05-14T14:48:38.009Z,100519.97
2023-05-14T14:53:40.913Z,100514.58
2023-05-14T14:58:43.824Z,100508.44
2023-05-14T15:03:48.411Z,100501.67
2023-05-14T15:08:51.283Z,100497.15
2023-05-14T15:13:54.068Z,100492.53
2023-05-14T15:18:56.922Z,100484.98
2023-05-14T15:23:59.908Z,100477.62
2023-05-14T15:29:04.764Z,100472.12
2023-05-14T15:34:07.691Z,100475.55
2023-05-14T15:39:10.509Z,100474.34
2023-05-14T15:44:13.297Z,100463.52
2023-05-14T15:49:16.122Z,100466.03
2023-05-14T15:54:18.966Z,100460.80
2023-05-14T15:59:21.883Z,100456.20
2023-05-14T16:04:25.294Z,100454.88
2023-05-14T16:09:28.118Z,100457.89
2023-05-14T16:14:31.099Z,100454.92
2023-05-14T16:19:33.929Z,100451.06
2023-05-14T16:24:36.776Z,100443.65
2023-05-14T16:29:39.595Z,100438.45
2023-05-14T16:34:47.542Z,100434.32
2023-05-14T16:39:50.500Z,100428.49
2023-05-14T16:44:53.387Z,100423.15
2023-05-14T16:49:57.656Z,100423.73
2023-05-14T16:55:00.589Z,100421.34
2023-05-14T17:00:06.304Z,100420.58
2023-05-14T17:05:09.483Z,100419.91
2023-05-14T17:10:12.418Z,100417.30
2023-05-14T17:15:15.246Z,100418.11
2023-05-14T17:20:18.070Z,100417.11
2023-05-14T17:25:24.038Z,100417.05
2023-05-14T17:30:27.200Z,100409.84
2023-05-14T17:35:30.095Z,100414.44
2023-05-14T17:40:33.648Z,100409.17
2023-05-14T17:45:46.284Z,100411.65
2023-05-14T17:50:56.497Z,100407.87
2023-05-14T17:55:59.707Z,100400.61
2023-05-14T18:01:02.664Z,100403.10
2023-05-14T18:06:05.846Z,100404.23
2023-05-14T18:11:08.913Z,100402.93
2023-05-14T18:16:11.742Z,100402.30
2023-05-14T18:21:14.642Z,100409.89
2023-05-14T18:26:17.872Z,100402.88
2023-05-14T18:31:20.835Z,100406.27
2023-05-14T18:36:23.792Z,100407.04
2023-05-14T18:41:26.685Z,100404.98
2023-05-14T18:46:29.702Z,100403.61
2023-05-14T18:51:32.732Z,100406.23
2023-05-14T18:56:37.575Z,100409.65
2023-05-14T19:01:40.540Z,100406.92
2023-05-14T19:06:43.924Z,100413.55
2023-05-14T19:11:47.692Z,100412.70
2023-05-14T19:16:50.868Z,100414.70
2023-05-14T19:21:53.731Z,100410.58
2023-05-14T19:26:56.421Z,100405.92
2023-05-14T19:31:59.590Z,100399.89
2023-05-14T19:37:03.050Z,100396.03
2023-05-14T19:42:06.331Z,100397.83
2023-05-14T19:47:09.388Z,100396.75
2023-05-14T19:52:12.289Z,100396.96
2023-05-14T19:57:15.076Z,100394.70
2023-05-14T20:02:18.642Z,100393.96
2023-05-14T20:07:21.678Z,100392.31
2023-05-14T20:12:24.516Z,100392.26
2023-05-14T20:17:27.428Z,100387.77
2023-05-14T20:22:30.426Z,100393.89
2023-05-14T20:27:33.208Z,100390.42
2023-05-14T20:32:36.083Z,100387.28
2023-05-14T20:37:39.221Z,100386.56
2023-05-14T20:42:41.916Z,100388.23
2023-05-14T20:47:44.974Z,100388.10
2023-05-14T20:52:47.749Z,100388.67
2023-05-14T20:57:50.670Z,100381.20
2023-05-14T21:02:54.027Z,100374.08
2023-05-14T21:07:56.914Z,100369.64
2023-05-14T21:12:59.770Z,100362.73
2023-05-14T21:18:03.161Z,100360.09
2023-05-14T21:23:06.092Z,100357.88
2023-05-14T21:28:09.155Z,100358.96
2023-05-14T21:33:12.007Z,100356.52
2023-05-14T21:38:15.361Z,100350.37
2023-05-14T21:43:18.305Z,100342.78
2023-05-14T21:48:21.838Z,100344.95
2023-05-14T21:53:24.742Z,100338.88
2023-05-14T21:58:27.732Z,100336.25
2023-05-14T22:03:30.605Z,100329.68
2023-05-14T22:08:33.462Z,100327.28
2023-05-14T22:13:40.893Z,100323.46
2023-05-14T22:18:44.257Z,100320.55
2023-05-14T22:23:48.010Z,100320.14
2023-05-14T22:28:50.872Z,100317.67
2023-05-14T22:33:53.799Z,100310.67
2023-05-14T22:38:56.599Z,100309.45
2023-05-14T22:43:59.405Z,100303.55
2023-05-14T22:49:02.321Z,100300.13
2023-05-14T22:54:05.200Z,100294.07
2023-05-14T22:59:08.067Z,100287.55
2023-05-14T23:04:11.192Z,100280.58
2023-05-14T23:09:13.919Z,100274.94
2023-05-14T23:14:18.050Z,100270.84
2023-05-14T23:19:21.987Z,100266.84
2023-05-14T23:24:26.237Z,100260.60
2023-05-14T23:29:29.072Z,100252.77
2023-05-14T23:34:31.892Z,100244.08
2023-05-14T23:39:34.725Z,100233.31
2023-05-14T23:44:37.568Z,100225.27
2023-05-14T23:49:41.011Z,100222.70
2023-05-14T23:54:43.804Z,100211.70
2023-05-14T23:59:46.894Z,100203.92
